createdAt,value
2023-05-17T00:01:39.400Z,17.30
2023-05-17T00:04:13.425Z,17.33
2023-05-17T00:06:47.318Z,17.49
2023-05-17T00:09:22.254Z,17.58
2023-05-17T00:11:56.053Z,17.62
2023-05-17T00:14:17.269Z,17.52
2023-05-17T00:16:46.050Z,17.44
2023-05-17T00:19:21.068Z,17.44
2023-05-17T00:21:48.001Z,17.49
2023-05-17T00:24:22.013Z,17.39
2023-05-17T00:26:48.175Z,17.37
2023-05-17T00:29:11.071Z,17.43
2023-05-17T00:31:45.600Z,17.40
2023-05-17T00:34:19.510Z,17.41
2023-05-17T00:36:53.977Z,17.41
2023-05-17T00:39:28.220Z,17.36
2023-05-17T00:42:03.110Z,17.25
2023-05-17T00:44:37.324Z,17.12
2023-05-17T00:47:03.937Z,16.96
2023-05-17T00:49:26.971Z,16.86
2023-05-17T00:52:02.018Z,16.83
2023-05-17T00:54:37.543Z,16.82
2023-05-17T00:57:12.479Z,16.87
2023-05-17T00:59:48.311Z,16.87
2023-05-17T01:02:21.780Z,16.88
2023-05-17T01:04:48.588Z,16.84
2023-05-17T01:07:22.614Z,16.84
2023-05-17T01:09:56.759Z,16.77
2023-05-17T01:12:43.332Z,16.74
2023-05-17T01:15:23.201Z,16.72
2023-05-17T01:18:04.608Z,16.73
2023-05-17T01:20:43.427Z,16.62
2023-05-17T01:23:24.688Z,16.52
2023-05-17T01:26:17.379Z,16.38
2023-05-17T01:28:41.209Z,16.35
2023-05-17T01:31:15.358Z,16.39
2023-05-17T01:33:49.186Z,16.36
2023-05-17T01:36:24.628Z,16.33
2023-05-17T01:38:58.668Z,16.37
2023-05-17T01:41:39.988Z,16.37
2023-05-17T01:44:13.256Z,16.33
2023-05-17T01:46:49.096Z,16.31
2023-05-17T01:49:20.143Z,16.29
2023-05-17T01:51:48.479Z,16.22
2023-05-17T01:54:13.419Z,16.22
2023-05-17T01:56:44.837Z,16.24
2023-05-17T01:59:26.382Z,16.25
2023-05-17T02:02:07.387Z,16.23
2023-05-17T02:04:42.957Z,16.21
2023-05-17T02:07:16.047Z,16.23
2023-05-17T02:09:50.208Z,16.29
2023-05-17T02:12:24.633Z,16.26
2023-05-17T02:14:58.567Z,16.29
2023-05-17T02:17:32.389Z,16.32
2023-05-17T02:20:06.686Z,16.31
2023-05-17T02:22:40.472Z,16.28
2023-05-17T02:25:15.932Z,16.31
2023-05-17T02:27:50.046Z,16.39
2023-05-17T02:30:25.889Z,16.46
2023-05-17T02:33:00.373Z,16.50
2023-05-17T02:35:35.953Z,16.55
2023-05-17T02:38:11.002Z,16.60
2023-05-17T02:40:47.742Z,16.63
2023-05-17T02:43:21.151Z,16.63
2023-05-17T02:45:56.012Z,16.64
2023-05-17T02:48:31.050Z,16.62
2023-05-17T02:51:05.132Z,16.56
2023-05-17T02:53:39.166Z,16.55
2023-05-17T02:56:14.084Z,16.53
2023-05-17T02:58:37.016Z,16.56
2023-05-17T03:01:10.646Z,16.55
2023-05-17T03:03:44.931Z,16.51
2023-05-17T03:06:19.569Z,16.47
2023-05-17T03:08:53.551Z,16.44
2023-05-17T03:11:27.099Z,16.40
2023-05-17T03:14:02.238Z,16.31
2023-05-17T03:16:36.349Z,16.18
2023-05-17T03:18:59.816Z,16.07
2023-05-17T03:21:53.681Z,15.97
2023-05-17T03:24:27.587Z,15.83
2023-05-17T03:27:01.743Z,15.77
2023-05-17T03:29:37.509Z,15.74
2023-05-17T03:32:14.383Z,15.68
2023-05-17T03:34:50.281Z,15.57
2023-05-17T03:37:24.648Z,15.51
2023-05-17T03:39:58.658Z,15.45
2023-05-17T03:42:33.195Z,15.40
2023-05-17T03:44:51.966Z,15.36
2023-05-17T03:47:26.605Z,15.31
2023-05-17T03:50:01.341Z,15.28
2023-05-17T03:52:35.771Z,15.23
2023-05-17T03:55:10.593Z,15.21
2023-05-17T03:57:45.927Z,15.23
2023-05-17T04:00:11.803Z,15.24
2023-05-17T04:02:28.726Z,15.24
2023-05-17T04:05:02.702Z,15.20
2023-05-17T04:07:38.068Z,15.14
2023-05-17T04:10:12.461Z,15.11
2023-05-17T04:12:46.597Z,15.09
2023-05-17T04:15:21.990Z,15.08
2023-05-17T04:17:56.734Z,15.07
2023-05-17T04:20:30.620Z,15.06
2023-05-17T04:23:04.327Z,15.06
2023-05-17T04:25:40.056Z,15.07
2023-05-17T04:28:02.491Z,15.08
2023-05-17T04:30:36.742Z,15.07
2023-05-17T04:33:13.497Z,15.07
2023-05-17T04:35:49.833Z,15.04
2023-05-17T04:38:24.830Z,15.03
2023-05-17T04:40:51.831Z,15.03
2023-05-17T04:43:27.853Z,15.03
2023-05-17T04:46:06.974Z,15.02
2023-05-17T04:48:41.872Z,15.01
2023-05-17T04:51:16.320Z,15.02
2023-05-17T04:53:51.389Z,15.00
2023-05-17T04:56:24.996Z,14.98
2023-05-17T04:58:52.960Z,14.96
2023-05-17T05:01:28.061Z,14.97
2023-05-17T05:03:50.234Z,14.95
2023-05-17T05:06:23.699Z,14.93
2023-05-17T05:08:45.498Z,14.92
2023-05-17T05:11:11.987Z,14.91
2023-05-17T05:13:45.791Z,14.87
2023-05-17T05:16:20.431Z,14.86
2023-05-17T05:18:46.850Z,14.85
2023-05-17T05:21:09.940Z,14.84
2023-05-17T05:23:43.477Z,14.82
2023-05-17T05:26:17.607Z,14.83
2023-05-17T05:28:40.776Z,14.81
2023-05-17T05:31:14.495Z,14.83
2023-05-17T05:33:48.691Z,14.82
2023-05-17T05:36:22.308Z,14.77
2023-05-17T05:38:56.356Z,14.77
2023-05-17T05:41:32.497Z,14.76
2023-05-17T05:44:06.167Z,14.73
2023-05-17T05:46:41.564Z,14.72
2023-05-17T05:49:05.039Z,14.70
2023-05-17T05:51:39.383Z,14.70
2023-05-17T05:54:15.592Z,14.71
2023-05-17T05:56:50.048Z,14.70
2023-05-17T05:59:24.503Z,14.67
2023-05-17T06:01:59.185Z,14.67
2023-05-17T06:04:44.671Z,14.69
2023-05-17T06:07:19.607Z,14.70
2023-05-17T06:09:53.242Z,14.70
2023-05-17T06:12:16.188Z,14.70
2023-05-17T06:14:43.271Z,14.71
2023-05-17T06:17:17.374Z,14.72
2023-05-17T06:19:39.945Z,14.74
2023-05-17T06:22:14.356Z,14.73
2023-05-17T06:24:48.265Z,14.72
2023-05-17T06:27:23.083Z,14.71
2023-05-17T06:29:56.573Z,14.69
2023-05-17T06:32:30.829Z,14.70
2023-05-17T06:35:06.232Z,14.72
2023-05-17T06:37:40.171Z,14.72
2023-05-17T06:40:17.132Z,14.71
2023-05-17T06:42:41.363Z,14.72
2023-05-17T06:45:17.606Z,14.76
2023-05-17T06:47:40.746Z,14.79
2023-05-17T06:50:16.356Z,14.82
2023-05-17T06:52:50.187Z,14.82
2023-05-17T06:55:24.312Z,14.82
2023-05-17T06:57:46.033Z,14.85
2023-05-17T07:00:24.133Z,14.86
2023-05-17T07:02:58.147Z,14.84
2023-05-17T07:05:33.265Z,14.83
2023-05-17T07:08:07.292Z,14.84
2023-05-17T07:10:29.726Z,14.82
2023-05-17T07:13:05.786Z,14.80
2023-05-17T07:15:39.944Z,14.79
2023-05-17T07:18:14.843Z,14.79
2023-05-17T07:20:48.765Z,14.81
2023-05-17T07:23:23.712Z,14.80
2023-05-17T07:25:52.307Z,14.75
2023-05-17T07:28:25.562Z,14.74
2023-05-17T07:31:00.902Z,14.74
2023-05-17T07:33:35.121Z,14.72
2023-05-17T07:36:09.780Z,14.72
2023-05-17T07:38:38.555Z,14.73
2023-05-17T07:41:11.074Z,14.75
2023-05-17T07:43:46.423Z,14.76
2023-05-17T07:46:20.328Z,14.77
2023-05-17T07:48:58.230Z,14.79
2023-05-17T07:51:21.852Z,14.79
2023-05-17T07:53:56.587Z,14.79
2023-05-17T07:56:29.967Z,14.78
2023-05-17T07:58:53.975Z,14.71
2023-05-17T08:01:28.175Z,14.69
2023-05-17T08:04:02.171Z,14.67
2023-05-17T08:06:35.957Z,14.65
2023-05-17T08:09:03.638Z,14.64
2023-05-17T08:11:39.245Z,14.64
2023-05-17T08:14:01.092Z,14.64
2023-05-17T08:16:35.832Z,14.66
2023-05-17T08:19:10.795Z,14.67
2023-05-17T08:21:45.513Z,14.65
2023-05-17T08:24:21.246Z,14.65
2023-05-17T08:26:54.177Z,14.63
2023-05-17T08:29:30.604Z,14.60
2023-05-17T08:32:05.032Z,14.56
2023-05-17T08:34:42.362Z,14.53
2023-05-17T08:37:17.660Z,14.53
2023-05-17T08:39:55.503Z,14.53
2023-05-17T08:42:29.999Z,14.54
2023-05-17T08:45:04.918Z,14.54
2023-05-17T08:47:39.007Z,14.56
2023-05-17T08:50:14.468Z,14.58
2023-05-17T08:52:52.661Z,14.60
2023-05-17T08:55:27.527Z,14.61
2023-05-17T08:58:02.505Z,14.57
2023-05-17T09:00:36.104Z,14.54
2023-05-17T09:03:10.270Z,14.52
2023-05-17T09:05:44.511Z,14.49
2023-05-17T09:08:19.072Z,14.49
2023-05-17T09:10:52.726Z,14.48
2023-05-17T09:13:28.719Z,14.46
2023-05-17T09:16:02.856Z,14.41
2023-05-17T09:18:40.096Z,14.38
2023-05-17T09:21:11.194Z,14.34
2023-05-17T09:23:54.262Z,14.32
2023-05-17T09:26:45.688Z,14.30
2023-05-17T09:29:20.617Z,14.27
2023-05-17T09:31:54.597Z,14.26
2023-05-17T09:34:30.718Z,14.25
2023-05-17T09:36:58.554Z,14.24
2023-05-17T09:39:35.398Z,14.21
2023-05-17T09:42:08.519Z,14.16
2023-05-17T09:44:51.885Z,14.13
2023-05-17T09:47:35.172Z,14.14
2023-05-17T09:50:10.280Z,14.14
2023-05-17T09:52:44.992Z,14.14
2023-05-17T09:55:11.071Z,14.12
2023-05-17T09:57:46.390Z,14.11
2023-05-17T10:00:25.750Z,14.12
2023-05-17T10:03:00.617Z,14.13
2023-05-17T10:05:32.429Z,14.14
2023-05-17T10:08:10.147Z,14.16
2023-05-17T10:10:49.999Z,14.17
2023-05-17T10:13:25.973Z,14.18
2023-05-17T10:16:02.076Z,14.18
2023-05-17T10:18:36.938Z,14.19
2023-05-17T10:21:11.876Z,14.19
2023-05-17T10:23:48.208Z,14.21
2023-05-17T10:26:24.001Z,14.25
2023-05-17T10:29:01.776Z,14.26
2023-05-17T10:31:24.584Z,14.26
2023-05-17T10:33:53.677Z,14.24
2023-05-17T10:36:28.032Z,14.24
2023-05-17T10:38:51.540Z,14.26
2023-05-17T10:41:27.741Z,14.29
2023-05-17T10:43:53.010Z,14.30
2023-05-17T10:46:27.286Z,14.30
2023-05-17T10:49:02.943Z,14.28
2023-05-17T10:51:28.558Z,14.26
2023-05-17T10:54:19.633Z,14.22
2023-05-17T10:56:57.465Z,14.19
2023-05-17T10:59:33.537Z,14.16
2023-05-17T11:02:06.321Z,14.14
2023-05-17T11:04:29.649Z,14.14
2023-05-17T11:07:28.308Z,14.15
2023-05-17T11:10:15.431Z,14.18
2023-05-17T11:12:56.457Z,14.18
2023-05-17T11:15:36.768Z,14.17
2023-05-17T11:18:29.189Z,14.17
2023-05-17T11:21:17.319Z,14.16
2023-05-17T11:23:52.507Z,14.16
2023-05-17T11:26:37.678Z,14.13
2023-05-17T11:29:10.002Z,14.10
2023-05-17T11:31:39.011Z,14.06
2023-05-17T11:34:13.032Z,14.02
2023-05-17T11:36:58.585Z,13.99
2023-05-17T11:39:23.136Z,13.94
2023-05-17T11:41:57.920Z,13.88
2023-05-17T11:44:26.360Z,13.87
2023-05-17T11:47:07.900Z,13.84
2023-05-17T11:49:44.101Z,13.81
2023-05-17T11:52:19.860Z,13.79
2023-05-17T11:54:44.556Z,13.78
2023-05-17T11:57:22.694Z,13.75
2023-05-17T11:59:50.290Z,13.74
2023-05-17T12:02:37.700Z,13.73
2023-05-17T12:05:12.107Z,13.72
2023-05-17T12:07:45.641Z,13.68
2023-05-17T12:10:22.950Z,13.64
2023-05-17T12:12:57.886Z,13.62
2023-05-17T12:15:25.803Z,13.60
2023-05-17T12:18:00.593Z,13.60
2023-05-17T12:20:36.458Z,13.61
2023-05-17T12:23:10.679Z,13.56
2023-05-17T12:25:45.280Z,13.53
2023-05-17T12:28:23.782Z,13.53
2023-05-17T12:31:04.217Z,13.51
2023-05-17T12:33:42.490Z,13.49
2023-05-17T12:36:17.121Z,13.49
2023-05-17T12:38:45.980Z,13.49
2023-05-17T12:41:10.723Z,13.47
2023-05-17T12:43:41.001Z,13.46
2023-05-17T12:46:15.390Z,13.47
2023-05-17T12:48:39.526Z,13.50
2023-05-17T12:51:10.051Z,13.53
2023-05-17T12:53:47.564Z,13.55
2023-05-17T12:56:12.564Z,13.59
2023-05-17T12:58:48.024Z,13.64
2023-05-17T13:01:15.653Z,13.69
2023-05-17T13:03:57.120Z,13.73
2023-05-17T13:06:31.742Z,13.77
2023-05-17T13:09:05.164Z,13.82
2023-05-17T13:11:42.382Z,13.85
2023-05-17T13:14:15.953Z,13.88
2023-05-17T13:16:51.346Z,13.87
2023-05-17T13:19:28.775Z,13.88
2023-05-17T13:21:56.065Z,13.89
2023-05-17T13:24:31.501Z,13.91
2023-05-17T13:26:54.668Z,13.92
2023-05-17T13:29:38.001Z,13.91
2023-05-17T13:32:16.311Z,13.92
2023-05-17T13:34:50.477Z,13.95
2023-05-17T13:37:25.370Z,13.96
2023-05-17T13:39:50.567Z,13.97
2023-05-17T13:42:24.559Z,13.96
2023-05-17T13:44:58.789Z,13.97
2023-05-17T13:47:33.397Z,13.99
2023-05-17T13:50:09.403Z,14.01
2023-05-17T13:52:45.110Z,14.01
2023-05-17T13:55:18.844Z,14.03
2023-05-17T13:57:53.053Z,14.00
2023-05-17T14:00:28.459Z,13.94
2023-05-17T14:03:04.807Z,13.93
2023-05-17T14:05:38.791Z,13.97
2023-05-17T14:08:15.162Z,14.01
2023-05-17T14:10:51.947Z,14.02
2023-05-17T14:13:26.001Z,14.04
2023-05-17T14:15:49.503Z,14.08
2023-05-17T14:18:16.723Z,14.11
2023-05-17T14:20:54.458Z,14.16
2023-05-17T14:23:27.944Z,14.18
2023-05-17T14:26:03.907Z,14.18
2023-05-17T14:28:39.269Z,14.20
2023-05-17T14:31:13.768Z,14.32
2023-05-17T14:33:37.325Z,14.45
2023-05-17T14:36:13.916Z,14.58
2023-05-17T14:38:49.439Z,14.68
2023-05-17T14:41:23.244Z,14.75
2023-05-17T14:43:46.465Z,14.84
2023-05-17T14:46:20.781Z,14.87
2023-05-17T14:48:54.652Z,14.88
2023-05-17T14:51:19.854Z,14.81
2023-05-17T14:53:53.857Z,14.75
2023-05-17T14:56:17.947Z,14.73
2023-05-17T14:58:51.462Z,14.68
2023-05-17T15:01:25.547Z,14.64
2023-05-17T15:04:00.143Z,14.56
2023-05-17T15:06:34.981Z,14.52
2023-05-17T15:08:59.273Z,14.53
2023-05-17T15:11:23.188Z,14.55
2023-05-17T15:13:57.506Z,14.50
2023-05-17T15:16:32.565Z,14.48
2023-05-17T15:19:08.824Z,14.51
2023-05-17T15:21:37.076Z,14.56
2023-05-17T15:24:13.584Z,14.63
2023-05-17T15:26:48.596Z,14.68
2023-05-17T15:29:22.528Z,14.69
2023-05-17T15:31:56.553Z,14.75
2023-05-17T15:34:31.886Z,14.81
2023-05-17T15:36:51.431Z,14.81
2023-05-17T15:39:27.291Z,14.75
2023-05-17T15:42:01.000Z,14.77
2023-05-17T15:44:34.838Z,14.83
2023-05-17T15:47:08.333Z,14.90
2023-05-17T15:49:32.175Z,14.94
2023-05-17T15:52:05.862Z,14.95
2023-05-17T15:54:40.128Z,15.02
2023-05-17T15:57:15.974Z,15.09
2023-05-17T15:59:50.248Z,15.08
2023-05-17T16:02:25.662Z,15.10
2023-05-17T16:05:01.754Z,15.13
2023-05-17T16:07:37.729Z,15.18
2023-05-17T16:10:13.041Z,15.27
2023-05-17T16:12:48.576Z,15.36
2023-05-17T16:15:12.348Z,15.44
2023-05-17T16:17:45.797Z,15.50
2023-05-17T16:20:22.949Z,15.54
2023-05-17T16:22:58.699Z,15.58
2023-05-17T16:25:32.511Z,15.62
2023-05-17T16:28:07.267Z,15.71
2023-05-17T16:30:42.009Z,15.76
2023-05-17T16:33:15.766Z,15.81
2023-05-17T16:35:53.310Z,15.89
2023-05-17T16:38:27.973Z,15.99
2023-05-17T16:41:06.376Z,16.07
2023-05-17T16:43:41.144Z,16.10
2023-05-17T16:46:14.266Z,16.14
2023-05-17T16:48:49.841Z,16.17
2023-05-17T16:51:25.493Z,16.25
2023-05-17T16:53:58.901Z,16.33
2023-05-17T16:56:34.922Z,16.48
2023-05-17T16:59:09.801Z,16.59
2023-05-17T17:01:37.354Z,16.66
2023-05-17T17:04:12.826Z,16.74
2023-05-17T17:06:39.697Z,16.83
2023-05-17T17:09:13.987Z,16.81
2023-05-17T17:11:48.213Z,16.87
2023-05-17T17:14:23.199Z,17.01
2023-05-17T17:16:56.811Z,17.16
2023-05-17T17:19:32.527Z,17.28
2023-05-17T17:22:07.804Z,17.26
2023-05-17T17:24:28.426Z,17.20
2023-05-17T17:26:54.221Z,17.19
2023-05-17T17:29:20.142Z,17.16
2023-05-17T17:31:53.864Z,17.13
2023-05-17T17:34:28.409Z,17.09
2023-05-17T17:37:03.942Z,17.08
2023-05-17T17:39:37.321Z,17.03
2023-05-17T17:42:12.374Z,16.98
2023-05-17T17:44:41.607Z,16.97
2023-05-17T17:47:15.975Z,16.94
2023-05-17T17:49:49.285Z,16.92
2023-05-17T17:52:23.678Z,16.93
2023-05-17T17:54:47.950Z,17.03
2023-05-17T17:57:23.129Z,17.10
2023-05-17T17:59:45.430Z,17.15
2023-05-17T18:02:07.498Z,17.19
2023-05-17T18:04:42.560Z,17.21
2023-05-17T18:07:17.562Z,17.17
2023-05-17T18:09:54.793Z,17.10
2023-05-17T18:12:29.650Z,17.08
2023-05-17T18:15:04.077Z,17.10
2023-05-17T18:17:38.078Z,17.18
2023-05-17T18:20:14.144Z,17.26
2023-05-17T18:22:48.461Z,17.33
2023-05-17T18:25:22.579Z,17.35
2023-05-17T18:27:57.349Z,17.39
2023-05-17T18:30:31.816Z,17.46
2023-05-17T18:33:08.171Z,17.48
2023-05-17T18:35:42.449Z,17.47
2023-05-17T18:38:16.315Z,17.51
2023-05-17T18:40:44.147Z,17.53
2023-05-17T18:43:12.071Z,17.55
2023-05-17T18:45:45.904Z,17.53
2023-05-17T18:48:23.178Z,17.51
2023-05-17T18:50:58.689Z,17.50
2023-05-17T18:53:32.630Z,17.52
2023-05-17T18:55:55.607Z,17.59
2023-05-17T18:58:31.005Z,17.64
2023-05-17T19:01:06.047Z,17.63
2023-05-17T19:03:27.934Z,17.63
2023-05-17T19:05:54.657Z,17.68
2023-05-17T19:08:27.503Z,17.66
2023-05-17T19:11:04.702Z,17.65
2023-05-17T19:13:28.309Z,17.62
2023-05-17T19:15:54.210Z,17.57
2023-05-17T19:18:19.054Z,17.61
2023-05-17T19:20:54.078Z,17.68
2023-05-17T19:23:29.391Z,17.69
2023-05-17T19:25:50.282Z,17.66
2023-05-17T19:28:19.179Z,17.61
2023-05-17T19:30:53.597Z,17.57
2023-05-17T19:33:29.421Z,17.51
2023-05-17T19:36:03.733Z,17.46
2023-05-17T19:38:29.778Z,17.47
2023-05-17T19:41:02.743Z,17.51
2023-05-17T19:43:38.133Z,17.59
2023-05-17T19:45:59.742Z,17.65
2023-05-17T19:48:34.031Z,17.65
2023-05-17T19:50:58.099Z,17.55
2023-05-17T19:53:21.257Z,17.47
2023-05-17T19:55:55.740Z,17.55
2023-05-17T19:58:30.667Z,17.59
2023-05-17T20:00:53.092Z,17.61
2023-05-17T20:03:28.376Z,17.62
2023-05-17T20:06:01.792Z,17.58
2023-05-17T20:08:36.180Z,17.54
2023-05-17T20:11:10.584Z,17.57
2023-05-17T20:13:35.230Z,17.58
2023-05-17T20:16:13.773Z,17.45
2023-05-17T20:18:48.933Z,17.41
2023-05-17T20:21:13.949Z,17.54
2023-05-17T20:23:37.250Z,17.65
2023-05-17T20:26:02.794Z,17.70
2023-05-17T20:28:41.208Z,17.78
2023-05-17T20:31:04.371Z,17.85
2023-05-17T20:33:37.759Z,17.96
2023-05-17T20:36:12.878Z,18.13
2023-05-17T20:38:47.023Z,18.24
2023-05-17T20:41:20.812Z,18.30
2023-05-17T20:43:51.998Z,18.38
2023-05-17T20:46:26.550Z,18.49
2023-05-17T20:49:00.310Z,18.61
2023-05-17T20:51:23.550Z,18.71
2023-05-17T20:53:58.327Z,18.71
2023-05-17T20:56:33.118Z,18.75
2023-05-17T20:58:55.538Z,18.69
2023-05-17T21:01:30.326Z,18.68
2023-05-17T21:04:04.691Z,18.68
2023-05-17T21:06:39.770Z,18.65
2023-05-17T21:09:14.025Z,18.65
2023-05-17T21:11:48.865Z,18.75
2023-05-17T21:14:23.955Z,18.90
2023-05-17T21:16:59.162Z,18.93
2023-05-17T21:19:33.171Z,18.91
2023-05-17T21:22:08.570Z,18.95
2023-05-17T21:24:23.146Z,18.97
2023-05-17T21:26:45.988Z,19.01
2023-05-17T21:29:20.509Z,19.05
2023-05-17T21:31:54.877Z,19.02
2023-05-17T21:34:18.269Z,19.01
2023-05-17T21:36:40.521Z,19.07
2023-05-17T21:39:14.458Z,18.98
2023-05-17T21:41:37.860Z,18.90
2023-05-17T21:44:01.215Z,18.85
2023-05-17T21:46:37.372Z,18.80
2023-05-17T21:49:12.393Z,18.78
2023-05-17T21:51:35.501Z,18.71
2023-05-17T21:54:08.938Z,18.76
2023-05-17T21:56:33.380Z,18.77
2023-05-17T21:59:07.495Z,18.73
2023-05-17T22:01:41.318Z,18.69
2023-05-17T22:04:09.599Z,18.61
2023-05-17T22:06:35.591Z,18.49
2023-05-17T22:09:10.609Z,18.47
2023-05-17T22:11:34.307Z,18.48
2023-05-17T22:13:57.620Z,18.52
2023-05-17T22:16:29.166Z,18.59
2023-05-17T22:18:46.565Z,18.60
2023-05-17T22:21:23.779Z,18.56
2023-05-17T22:23:58.199Z,18.57
2023-05-17T22:26:25.107Z,18.57
2023-05-17T22:29:00.616Z,18.60
2023-05-17T22:31:28.901Z,18.60
2023-05-17T22:34:05.561Z,18.57
2023-05-17T22:36:39.383Z,18.60
2023-05-17T22:39:08.219Z,18.55
2023-05-17T22:41:42.484Z,18.53
2023-05-17T22:44:04.971Z,18.62
2023-05-17T22:46:34.457Z,18.72
2023-05-17T22:49:08.444Z,18.85
2023-05-17T22:51:42.747Z,18.89
2023-05-17T22:54:16.818Z,18.88
2023-05-17T22:56:50.845Z,18.93
2023-05-17T22:59:27.513Z,18.99
2023-05-17T23:02:01.783Z,18.94
2023-05-17T23:04:35.888Z,18.93
2023-05-17T23:07:10.902Z,18.99
2023-05-17T23:09:44.910Z,19.03
2023-05-17T23:12:18.498Z,19.13
2023-05-17T23:14:52.632Z,19.18
2023-05-17T23:17:27.905Z,19.25
2023-05-17T23:20:10.702Z,19.27
2023-05-17T23:22:35.062Z,19.22
2023-05-17T23:25:09.468Z,19.09
2023-05-17T23:27:45.643Z,19.08
2023-05-17T23:30:20.445Z,19.12
2023-05-17T23:32:56.315Z,19.01
2023-05-17T23:35:19.046Z,18.92
2023-05-17T23:37:53.593Z,18.91
2023-05-17T23:40:27.795Z,18.92
2023-05-17T23:42:50.676Z,18.91
2023-05-17T23:45:25.533Z,18.89
2023-05-17T23:48:01.319Z,18.95
2023-05-17T23:50:27.388Z,18.94
2023-05-17T23:53:04.478Z,18.76
2023-05-17T23:55:39.549Z,18.61
2023-05-17T23:58:06.822Z,18.56
